Hauptseite
METAR-TAF:

METAR-TAF

Flughäfen :

Reykjavík, Island

Flughafen Reykjavík

Breite: 64-08N, Länge: 021-54W, Höhe: 54 m

Beobachtung

Neuester Wetterbericht von vor 42 Minuten, um 02:00 UTC
Wind 2 kt aus unterschiedlichen Richtungen
Temperatur 13°C
Luftfeuchtigkeit 72%
Luftdruck 999 hPa
Sichtweite 10 km oder mehr
Leicht bewölkt in der Höhe von 4500 ft

METAR: BIRK 280200Z VRB02KT 9999 FEW045 13/08 Q0999

Zeit: 02:42 (02:42 UTC)

Prognose

Neuester Wetterbericht von vor 1 Stunde und 0 Minuten, um 01:42 UTC
Gültige Prognose vom 28 um 03 UTC bis 29 um 03 UTC
Wind 10 kt aus Ost
Sichtweite 10 km oder mehr
Aufgelockert bewölkt in der Höhe von 5000 ft
Übergehend zu
vom 28 um 08 UTC bis 28 um 11 UTC
Wind 15 kt aus Nord/Nordost

TAF: BIRK 280142Z 2803/2903 09010KT 9999 SCT050 TX20/2815Z TN11/2805Z BECMG 2808/2811 03015KT

Wetterbeobachtungen und Prognosen von mehr als 4000 Flughäfen (METAR und TAF Bericht).

Die verfügbaren Stationen werden durch gelbe und rote Markierungen auf der Karte dargestellt.

Führen Sie die Maus auf sie, um den Namen der Station zu sehen.

Darauf klicken, um die Beobachtung von Wetterbeobachtungen und Prognosen zu sehen.

Um die Karte zu ändern : klicken Sie auf den grünen Tasten mit einem schwarzen Kreuz Zum Vergrößern, auf den grünen Button mit einem Gedankenstrich zu verkleinern, oder auf die grünen Pfeile für benachbarte Karten.


METAR-TAF: